<?xml version="1.0" encoding="UTF-8" standalone="no" ?>
<gpx xmlns="http://www.topografix.com/GPX/1/1" xmlns:xsi="http://www.w3.org/2001/XMLSchema-instance" xsi:schemaLocation="http://www.topografix.com/GPX/1/1 http://www.topografix.com/GPX/1/1/gpx.xsd" version="1.1" creator="VisuGPX - https://www.visugpx.com">
  <metadata>
    <name>VTT 13 mars 2019</name>
    <desc><![CDATA[VTT 13 mars 2019 vers mont Aurelien]]></desc>
  </metadata>
  <trk>
    <name><![CDATA[BELGENT_ORIG]]></name>
    <trkseg>
      <trkpt lat="43.24345" lon="6.00102">
        <ele>156</ele>
        <time>2018-12-24T09:24:44Z</time>
      </trkpt>
      <trkpt lat="43.24365" lon="6.00079">
        <ele>156</ele>
        <time>2018-12-24T09:24:49Z</time>
      </trkpt>
      <trkpt lat="43.24388" lon="6.00055">
        <ele>157</ele>
        <time>2018-12-24T09:24:54Z</time>
      </trkpt>
      <trkpt lat="43.24414" lon="6.00047">
        <ele>157</ele>
        <time>2018-12-24T09:24:59Z</time>
      </trkpt>
      <trkpt lat="43.24451" lon="6.00044">
        <ele>158</ele>
        <time>2018-12-24T09:25:04Z</time>
      </trkpt>
      <trkpt lat="43.24468" lon="6.00044">
        <ele>158</ele>
        <time>2018-12-24T09:25:09Z</time>
      </trkpt>
      <trkpt lat="43.24515" lon="6.00038">
        <ele>159</ele>
        <time>2018-12-24T09:25:14Z</time>
      </trkpt>
      <trkpt lat="43.24513" lon="6.00017">
        <ele>159</ele>
        <time>2018-12-24T09:25:19Z</time>
      </trkpt>
      <trkpt lat="43.24526" lon="5.99999">
        <ele>160</ele>
        <time>2018-12-24T09:25:24Z</time>
      </trkpt>
      <trkpt lat="43.24519" lon="5.99974">
        <ele>160</ele>
        <time>2018-12-24T09:25:29Z</time>
      </trkpt>
      <trkpt lat="43.24511" lon="5.9995">
        <ele>161</ele>
        <time>2018-12-24T09:25:34Z</time>
      </trkpt>
      <trkpt lat="43.24508" lon="5.99937">
        <ele>161</ele>
        <time>2018-12-24T09:25:39Z</time>
      </trkpt>
      <trkpt lat="43.24527" lon="5.9992">
        <ele>162</ele>
        <time>2018-12-24T09:25:44Z</time>
      </trkpt>
      <trkpt lat="43.24538" lon="5.99898">
        <ele>164</ele>
        <time>2018-12-24T09:25:49Z</time>
      </trkpt>
      <trkpt lat="43.24532" lon="5.99879">
        <ele>165</ele>
        <time>2018-12-24T09:25:54Z</time>
      </trkpt>
      <trkpt lat="43.24556" lon="5.99856">
        <ele>168</ele>
        <time>2018-12-24T09:25:59Z</time>
      </trkpt>
      <trkpt lat="43.24588" lon="5.99819">
        <ele>174</ele>
        <time>2018-12-24T09:26:04Z</time>
      </trkpt>
      <trkpt lat="43.24616" lon="5.99798">
        <ele>177</ele>
        <time>2018-12-24T09:26:09Z</time>
      </trkpt>
      <trkpt lat="43.24637" lon="5.99787">
        <ele>176</ele>
        <time>2018-12-24T09:26:14Z</time>
      </trkpt>
      <trkpt lat="43.24685" lon="5.99757">
        <ele>176</ele>
        <time>2018-12-24T09:26:19Z</time>
      </trkpt>
      <trkpt lat="43.2471" lon="5.99703">
        <ele>186</ele>
        <time>2018-12-24T09:26:24Z</time>
      </trkpt>
      <trkpt lat="43.24719" lon="5.99695">
        <ele>186</ele>
        <time>2018-12-24T09:26:29Z</time>
      </trkpt>
      <trkpt lat="43.24757" lon="5.99678">
        <ele>183</ele>
        <time>2018-12-24T09:26:34Z</time>
      </trkpt>
      <trkpt lat="43.24772" lon="5.9968">
        <ele>182</ele>
        <time>2018-12-24T09:26:39Z</time>
      </trkpt>
      <trkpt lat="43.24792" lon="5.99682">
        <ele>181</ele>
        <time>2018-12-24T09:26:44Z</time>
      </trkpt>
      <trkpt lat="43.24811" lon="5.99678">
        <ele>181</ele>
        <time>2018-12-24T09:26:49Z</time>
      </trkpt>
      <trkpt lat="43.24862" lon="5.99678">
        <ele>180</ele>
        <time>2018-12-24T09:26:54Z</time>
      </trkpt>
      <trkpt lat="43.24901" lon="5.99675">
        <ele>181</ele>
        <time>2018-12-24T09:26:59Z</time>
      </trkpt>
      <trkpt lat="43.24944" lon="5.99663">
        <ele>180</ele>
        <time>2018-12-24T09:27:04Z</time>
      </trkpt>
      <trkpt lat="43.24955" lon="5.99654">
        <ele>181</ele>
        <time>2018-12-24T09:27:09Z</time>
      </trkpt>
      <trkpt lat="43.24961" lon="5.99639">
        <ele>182</ele>
        <time>2018-12-24T09:27:14Z</time>
      </trkpt>
      <trkpt lat="43.24966" lon="5.9962">
        <ele>184</ele>
        <time>2018-12-24T09:27:19Z</time>
      </trkpt>
      <trkpt lat="43.24966" lon="5.99585">
        <ele>189</ele>
        <time>2018-12-24T09:27:24Z</time>
      </trkpt>
      <trkpt lat="43.24963" lon="5.99562">
        <ele>193</ele>
        <time>2018-12-24T09:27:29Z</time>
      </trkpt>
      <trkpt lat="43.24966" lon="5.99527">
        <ele>196</ele>
        <time>2018-12-24T09:27:34Z</time>
      </trkpt>
      <trkpt lat="43.2497" lon="5.99495">
        <ele>198</ele>
        <time>2018-12-24T09:27:39Z</time>
      </trkpt>
      <trkpt lat="43.24978" lon="5.99448">
        <ele>200</ele>
        <time>2018-12-24T09:27:44Z</time>
      </trkpt>
      <trkpt lat="43.24987" lon="5.99431">
        <ele>197</ele>
        <time>2018-12-24T09:27:49Z</time>
      </trkpt>
      <trkpt lat="43.24996" lon="5.99407">
        <ele>196</ele>
        <time>2018-12-24T09:27:54Z</time>
      </trkpt>
      <trkpt lat="43.25006" lon="5.99384">
        <ele>198</ele>
        <time>2018-12-24T09:27:59Z</time>
      </trkpt>
      <trkpt lat="43.25026" lon="5.99351">
        <ele>201</ele>
        <time>2018-12-24T09:28:04Z</time>
      </trkpt>
      <trkpt lat="43.25041" lon="5.99332">
        <ele>199</ele>
        <time>2018-12-24T09:28:09Z</time>
      </trkpt>
      <trkpt lat="43.25058" lon="5.99315">
        <ele>199</ele>
        <time>2018-12-24T09:28:14Z</time>
      </trkpt>
      <trkpt lat="43.25075" lon="5.993">
        <ele>197</ele>
        <time>2018-12-24T09:28:19Z</time>
      </trkpt>
      <trkpt lat="43.25131" lon="5.99283">
        <ele>192</ele>
        <time>2018-12-24T09:28:24Z</time>
      </trkpt>
      <trkpt lat="43.25152" lon="5.99276">
        <ele>190</ele>
        <time>2018-12-24T09:28:29Z</time>
      </trkpt>
      <trkpt lat="43.25161" lon="5.99276">
        <ele>189</ele>
        <time>2018-12-24T09:28:34Z</time>
      </trkpt>
      <trkpt lat="43.25174" lon="5.99266">
        <ele>189</ele>
        <time>2018-12-24T09:28:39Z</time>
      </trkpt>
      <trkpt lat="43.25191" lon="5.99242">
        <ele>192</ele>
        <time>2018-12-24T09:28:44Z</time>
      </trkpt>
      <trkpt lat="43.25229" lon="5.99197">
        <ele>194</ele>
        <time>2018-12-24T09:28:49Z</time>
      </trkpt>
      <trkpt lat="43.25244" lon="5.99186">
        <ele>192</ele>
        <time>2018-12-24T09:28:54Z</time>
      </trkpt>
      <trkpt lat="43.25259" lon="5.99171">
        <ele>190</ele>
        <time>2018-12-24T09:28:59Z</time>
      </trkpt>
      <trkpt lat="43.2527" lon="5.99156">
        <ele>191</ele>
        <time>2018-12-24T09:29:04Z</time>
      </trkpt>
      <trkpt lat="43.25279" lon="5.9913">
        <ele>195</ele>
        <time>2018-12-24T09:29:09Z</time>
      </trkpt>
      <trkpt lat="43.25289" lon="5.99115">
        <ele>194</ele>
        <time>2018-12-24T09:29:14Z</time>
      </trkpt>
      <trkpt lat="43.25313" lon="5.99019">
        <ele>195</ele>
        <time>2018-12-24T09:29:19Z</time>
      </trkpt>
      <trkpt lat="43.2533" lon="5.9891">
        <ele>189</ele>
        <time>2018-12-24T09:29:24Z</time>
      </trkpt>
      <trkpt lat="43.25326" lon="5.98809">
        <ele>191</ele>
        <time>2018-12-24T09:29:29Z</time>
      </trkpt>
      <trkpt lat="43.25328" lon="5.98785">
        <ele>193</ele>
        <time>2018-12-24T09:29:34Z</time>
      </trkpt>
      <trkpt lat="43.25338" lon="5.98775">
        <ele>192</ele>
        <time>2018-12-24T09:29:39Z</time>
      </trkpt>
      <trkpt lat="43.25345" lon="5.98759">
        <ele>193</ele>
        <time>2018-12-24T09:29:44Z</time>
      </trkpt>
      <trkpt lat="43.2535" lon="5.98714">
        <ele>195</ele>
        <time>2018-12-24T09:29:49Z</time>
      </trkpt>
      <trkpt lat="43.25343" lon="5.98703">
        <ele>196</ele>
        <time>2018-12-24T09:29:54Z</time>
      </trkpt>
      <trkpt lat="43.25337" lon="5.9868">
        <ele>198</ele>
        <time>2018-12-24T09:29:59Z</time>
      </trkpt>
      <trkpt lat="43.2536" lon="5.98641">
        <ele>196</ele>
        <time>2018-12-24T09:30:04Z</time>
      </trkpt>
      <trkpt lat="43.25362" lon="5.9863">
        <ele>195</ele>
        <time>2018-12-24T09:30:09Z</time>
      </trkpt>
      <trkpt lat="43.25362" lon="5.98594">
        <ele>196</ele>
        <time>2018-12-24T09:30:14Z</time>
      </trkpt>
      <trkpt lat="43.25356" lon="5.98564">
        <ele>198</ele>
        <time>2018-12-24T09:30:19Z</time>
      </trkpt>
      <trkpt lat="43.25343" lon="5.98525">
        <ele>201</ele>
        <time>2018-12-24T09:30:24Z</time>
      </trkpt>
      <trkpt lat="43.25332" lon="5.985">
        <ele>204</ele>
        <time>2018-12-24T09:30:29Z</time>
      </trkpt>
      <trkpt lat="43.25313" lon="5.98463">
        <ele>217</ele>
        <time>2018-12-24T09:30:34Z</time>
      </trkpt>
      <trkpt lat="43.25322" lon="5.98437">
        <ele>218</ele>
        <time>2018-12-24T09:30:39Z</time>
      </trkpt>
      <trkpt lat="43.25339" lon="5.98452">
        <ele>211</ele>
        <time>2018-12-24T09:30:44Z</time>
      </trkpt>
      <trkpt lat="43.25367" lon="5.98455">
        <ele>206</ele>
        <time>2018-12-24T09:30:49Z</time>
      </trkpt>
      <trkpt lat="43.25388" lon="5.98448">
        <ele>203</ele>
        <time>2018-12-24T09:30:54Z</time>
      </trkpt>
      <trkpt lat="43.25401" lon="5.98439">
        <ele>201</ele>
        <time>2018-12-24T09:30:59Z</time>
      </trkpt>
      <trkpt lat="43.25414" lon="5.98414">
        <ele>202</ele>
        <time>2018-12-24T09:31:04Z</time>
      </trkpt>
      <trkpt lat="43.25427" lon="5.98371">
        <ele>205</ele>
        <time>2018-12-24T09:31:09Z</time>
      </trkpt>
      <trkpt lat="43.25431" lon="5.98334">
        <ele>209</ele>
        <time>2018-12-24T09:31:14Z</time>
      </trkpt>
      <trkpt lat="43.25429" lon="5.98306">
        <ele>211</ele>
        <time>2018-12-24T09:31:19Z</time>
      </trkpt>
      <trkpt lat="43.25429" lon="5.98257">
        <ele>215</ele>
        <time>2018-12-24T09:31:24Z</time>
      </trkpt>
      <trkpt lat="43.2542" lon="5.98203">
        <ele>215</ele>
        <time>2018-12-24T09:31:29Z</time>
      </trkpt>
      <trkpt lat="43.25418" lon="5.98167">
        <ele>213</ele>
        <time>2018-12-24T09:31:34Z</time>
      </trkpt>
      <trkpt lat="43.25412" lon="5.98126">
        <ele>216</ele>
        <time>2018-12-24T09:31:39Z</time>
      </trkpt>
      <trkpt lat="43.25407" lon="5.98102">
        <ele>218</ele>
        <time>2018-12-24T09:31:44Z</time>
      </trkpt>
      <trkpt lat="43.25407" lon="5.98079">
        <ele>219</ele>
        <time>2018-12-24T09:31:49Z</time>
      </trkpt>
      <trkpt lat="43.25373" lon="5.98015">
        <ele>235</ele>
        <time>2018-12-24T09:31:54Z</time>
      </trkpt>
      <trkpt lat="43.25388" lon="5.98006">
        <ele>233</ele>
        <time>2018-12-24T09:31:59Z</time>
      </trkpt>
      <trkpt lat="43.25407" lon="5.98006">
        <ele>230</ele>
        <time>2018-12-24T09:32:04Z</time>
      </trkpt>
      <trkpt lat="43.25435" lon="5.98028">
        <ele>227</ele>
        <time>2018-12-24T09:32:09Z</time>
      </trkpt>
      <trkpt lat="43.25446" lon="5.9803">
        <ele>228</ele>
        <time>2018-12-24T09:32:14Z</time>
      </trkpt>
      <trkpt lat="43.25459" lon="5.98004">
        <ele>233</ele>
        <time>2018-12-24T09:32:19Z</time>
      </trkpt>
      <trkpt lat="43.25472" lon="5.97985">
        <ele>238</ele>
        <time>2018-12-24T09:32:24Z</time>
      </trkpt>
      <trkpt lat="43.25476" lon="5.97976">
        <ele>240</ele>
        <time>2018-12-24T09:32:29Z</time>
      </trkpt>
      <trkpt lat="43.25493" lon="5.97965">
        <ele>243</ele>
        <time>2018-12-24T09:32:34Z</time>
      </trkpt>
      <trkpt lat="43.25508" lon="5.97935">
        <ele>250</ele>
        <time>2018-12-24T09:32:39Z</time>
      </trkpt>
      <trkpt lat="43.25525" lon="5.97929">
        <ele>254</ele>
        <time>2018-12-24T09:32:44Z</time>
      </trkpt>
      <trkpt lat="43.25545" lon="5.97935">
        <ele>256</ele>
        <time>2018-12-24T09:32:49Z</time>
      </trkpt>
      <trkpt lat="43.25566" lon="5.97937">
        <ele>259</ele>
        <time>2018-12-24T09:32:54Z</time>
      </trkpt>
      <trkpt lat="43.25571" lon="5.97918">
        <ele>260</ele>
        <time>2018-12-24T09:32:59Z</time>
      </trkpt>
      <trkpt lat="43.25583" lon="5.97888">
        <ele>264</ele>
        <time>2018-12-24T09:33:04Z</time>
      </trkpt>
      <trkpt lat="43.25596" lon="5.97873">
        <ele>268</ele>
        <time>2018-12-24T09:33:09Z</time>
      </trkpt>
      <trkpt lat="43.25607" lon="5.97851">
        <ele>271</ele>
        <time>2018-12-24T09:33:14Z</time>
      </trkpt>
      <trkpt lat="43.25607" lon="5.9783">
        <ele>273</ele>
        <time>2018-12-24T09:33:19Z</time>
      </trkpt>
      <trkpt lat="43.25597" lon="5.97829">
        <ele>271</ele>
        <time>2018-12-24T09:33:24Z</time>
      </trkpt>
      <trkpt lat="43.25581" lon="5.97815">
        <ele>271</ele>
        <time>2018-12-24T09:33:29Z</time>
      </trkpt>
      <trkpt lat="43.25566" lon="5.97804">
        <ele>275</ele>
        <time>2018-12-24T09:33:34Z</time>
      </trkpt>
      <trkpt lat="43.25545" lon="5.97802">
        <ele>276</ele>
        <time>2018-12-24T09:33:39Z</time>
      </trkpt>
      <trkpt lat="43.25532" lon="5.97809">
        <ele>275</ele>
        <time>2018-12-24T09:33:44Z</time>
      </trkpt>
      <trkpt lat="43.25521" lon="5.97807">
        <ele>276</ele>
        <time>2018-12-24T09:33:49Z</time>
      </trkpt>
      <trkpt lat="43.25504" lon="5.97783">
        <ele>283</ele>
        <time>2018-12-24T09:33:54Z</time>
      </trkpt>
      <trkpt lat="43.25491" lon="5.97751">
        <ele>294</ele>
        <time>2018-12-24T09:33:59Z</time>
      </trkpt>
      <trkpt lat="43.25504" lon="5.97731">
        <ele>300</ele>
        <time>2018-12-24T09:34:04Z</time>
      </trkpt>
      <trkpt lat="43.25511" lon="5.97703">
        <ele>310</ele>
        <time>2018-12-24T09:34:09Z</time>
      </trkpt>
      <trkpt lat="43.25504" lon="5.97695">
        <ele>313</ele>
        <time>2018-12-24T09:34:14Z</time>
      </trkpt>
      <trkpt lat="43.25481" lon="5.97682">
        <ele>321</ele>
        <time>2018-12-24T09:34:19Z</time>
      </trkpt>
      <trkpt lat="43.25468" lon="5.97669">
        <ele>328</ele>
        <time>2018-12-24T09:34:24Z</time>
      </trkpt>
      <trkpt lat="43.2545" lon="5.97671">
        <ele>330</ele>
        <time>2018-12-24T09:34:29Z</time>
      </trkpt>
      <trkpt lat="43.25435" lon="5.9766">
        <ele>336</ele>
        <time>2018-12-24T09:34:34Z</time>
      </trkpt>
      <trkpt lat="43.25401" lon="5.97667">
        <ele>339</ele>
        <time>2018-12-24T09:34:39Z</time>
      </trkpt>
      <trkpt lat="43.25382" lon="5.97678">
        <ele>338</ele>
        <time>2018-12-24T09:34:44Z</time>
      </trkpt>
      <trkpt lat="43.25352" lon="5.97676">
        <ele>342</ele>
        <time>2018-12-24T09:34:49Z</time>
      </trkpt>
      <trkpt lat="43.25343" lon="5.97673">
        <ele>344</ele>
        <time>2018-12-24T09:34:54Z</time>
      </trkpt>
      <trkpt lat="43.25326" lon="5.97662">
        <ele>348</ele>
        <time>2018-12-24T09:34:59Z</time>
      </trkpt>
      <trkpt lat="43.25289" lon="5.97665">
        <ele>347</ele>
        <time>2018-12-24T09:35:04Z</time>
      </trkpt>
      <trkpt lat="43.25279" lon="5.9766">
        <ele>348</ele>
        <time>2018-12-24T09:35:09Z</time>
      </trkpt>
      <trkpt lat="43.25262" lon="5.97663">
        <ele>347</ele>
        <time>2018-12-24T09:35:14Z</time>
      </trkpt>
      <trkpt lat="43.25249" lon="5.97654">
        <ele>350</ele>
        <time>2018-12-24T09:35:19Z</time>
      </trkpt>
      <trkpt lat="43.25234" lon="5.97643">
        <ele>354</ele>
        <time>2018-12-24T09:35:24Z</time>
      </trkpt>
      <trkpt lat="43.25223" lon="5.97639">
        <ele>356</ele>
        <time>2018-12-24T09:35:29Z</time>
      </trkpt>
      <trkpt lat="43.25197" lon="5.97643">
        <ele>354</ele>
        <time>2018-12-24T09:35:34Z</time>
      </trkpt>
      <trkpt lat="43.25184" lon="5.9765">
        <ele>350</ele>
        <time>2018-12-24T09:35:39Z</time>
      </trkpt>
      <trkpt lat="43.25167" lon="5.97654">
        <ele>347</ele>
        <time>2018-12-24T09:35:44Z</time>
      </trkpt>
      <trkpt lat="43.2515" lon="5.97673">
        <ele>334</ele>
        <time>2018-12-24T09:35:49Z</time>
      </trkpt>
      <trkpt lat="43.25137" lon="5.97693">
        <ele>327</ele>
        <time>2018-12-24T09:35:54Z</time>
      </trkpt>
      <trkpt lat="43.25122" lon="5.97699">
        <ele>325</ele>
        <time>2018-12-24T09:35:59Z</time>
      </trkpt>
      <trkpt lat="43.25098" lon="5.97691">
        <ele>329</ele>
        <time>2018-12-24T09:36:04Z</time>
      </trkpt>
      <trkpt lat="43.25075" lon="5.9768">
        <ele>333</ele>
        <time>2018-12-24T09:36:09Z</time>
      </trkpt>
      <trkpt lat="43.25058" lon="5.97676">
        <ele>334</ele>
        <time>2018-12-24T09:36:14Z</time>
      </trkpt>
      <trkpt lat="43.25045" lon="5.97691">
        <ele>330</ele>
        <time>2018-12-24T09:36:19Z</time>
      </trkpt>
      <trkpt lat="43.25026" lon="5.97693">
        <ele>330</ele>
        <time>2018-12-24T09:36:24Z</time>
      </trkpt>
      <trkpt lat="43.25006" lon="5.9768">
        <ele>333</ele>
        <time>2018-12-24T09:36:29Z</time>
      </trkpt>
      <trkpt lat="43.25" lon="5.97678">
        <ele>334</ele>
        <time>2018-12-24T09:36:34Z</time>
      </trkpt>
      <trkpt lat="43.24985" lon="5.97669">
        <ele>338</ele>
        <time>2018-12-24T09:36:39Z</time>
      </trkpt>
      <trkpt lat="43.24974" lon="5.97669">
        <ele>339</ele>
        <time>2018-12-24T09:36:44Z</time>
      </trkpt>
      <trkpt lat="43.24953" lon="5.97667">
        <ele>341</ele>
        <time>2018-12-24T09:36:49Z</time>
      </trkpt>
      <trkpt lat="43.2494" lon="5.97686">
        <ele>340</ele>
        <time>2018-12-24T09:36:54Z</time>
      </trkpt>
      <trkpt lat="43.24935" lon="5.97742">
        <ele>334</ele>
        <time>2018-12-24T09:36:59Z</time>
      </trkpt>
      <trkpt lat="43.24935" lon="5.97763">
        <ele>332</ele>
        <time>2018-12-24T09:37:04Z</time>
      </trkpt>
      <trkpt lat="43.2494" lon="5.97804">
        <ele>329</ele>
        <time>2018-12-24T09:37:09Z</time>
      </trkpt>
      <trkpt lat="43.2494" lon="5.97841">
        <ele>328</ele>
        <time>2018-12-24T09:37:14Z</time>
      </trkpt>
      <trkpt lat="43.24927" lon="5.97864">
        <ele>332</ele>
        <time>2018-12-24T09:37:19Z</time>
      </trkpt>
      <trkpt lat="43.24943" lon="5.97871">
        <ele>329</ele>
        <time>2018-12-24T09:37:24Z</time>
      </trkpt>
      <trkpt lat="43.24966" lon="5.97894">
        <ele>328</ele>
        <time>2018-12-24T09:37:29Z</time>
      </trkpt>
      <trkpt lat="43.24978" lon="5.97908">
        <ele>329</ele>
        <time>2018-12-24T09:37:34Z</time>
      </trkpt>
      <trkpt lat="43.24993" lon="5.97927">
        <ele>329</ele>
        <time>2018-12-24T09:37:39Z</time>
      </trkpt>
      <trkpt lat="43.25007" lon="5.97957">
        <ele>328</ele>
        <time>2018-12-24T09:37:44Z</time>
      </trkpt>
      <trkpt lat="43.2501" lon="5.97974">
        <ele>327</ele>
        <time>2018-12-24T09:37:49Z</time>
      </trkpt>
      <trkpt lat="43.25021" lon="5.97993">
        <ele>327</ele>
        <time>2018-12-24T09:37:54Z</time>
      </trkpt>
      <trkpt lat="43.25033" lon="5.98019">
        <ele>325</ele>
        <time>2018-12-24T09:37:59Z</time>
      </trkpt>
      <trkpt lat="43.25038" lon="5.98042">
        <ele>322</ele>
        <time>2018-12-24T09:38:04Z</time>
      </trkpt>
      <trkpt lat="43.25043" lon="5.9806">
        <ele>321</ele>
        <time>2018-12-24T09:38:09Z</time>
      </trkpt>
      <trkpt lat="43.25049" lon="5.98075">
        <ele>319</ele>
        <time>2018-12-24T09:38:14Z</time>
      </trkpt>
      <trkpt lat="43.25081" lon="5.98105">
        <ele>317</ele>
        <time>2018-12-24T09:38:19Z</time>
      </trkpt>
      <trkpt lat="43.25088" lon="5.98118">
        <ele>315</ele>
        <time>2018-12-24T09:38:24Z</time>
      </trkpt>
      <trkpt lat="43.25092" lon="5.98165">
        <ele>309</ele>
        <time>2018-12-24T09:38:29Z</time>
      </trkpt>
      <trkpt lat="43.25092" lon="5.98186">
        <ele>311</ele>
        <time>2018-12-24T09:38:34Z</time>
      </trkpt>
      <trkpt lat="43.25088" lon="5.98199">
        <ele>313</ele>
        <time>2018-12-24T09:38:39Z</time>
      </trkpt>
      <trkpt lat="43.25058" lon="5.98248">
        <ele>313</ele>
        <time>2018-12-24T09:38:44Z</time>
      </trkpt>
      <trkpt lat="43.25032" lon="5.98268">
        <ele>310</ele>
        <time>2018-12-24T09:38:49Z</time>
      </trkpt>
      <trkpt lat="43.25013" lon="5.98289">
        <ele>310</ele>
        <time>2018-12-24T09:38:54Z</time>
      </trkpt>
      <trkpt lat="43.24997" lon="5.98309">
        <ele>310</ele>
        <time>2018-12-24T09:38:59Z</time>
      </trkpt>
      <trkpt lat="43.24966" lon="5.98343">
        <ele>306</ele>
        <time>2018-12-24T09:39:04Z</time>
      </trkpt>
      <trkpt lat="43.24953" lon="5.98352">
        <ele>303</ele>
        <time>2018-12-24T09:39:09Z</time>
      </trkpt>
      <trkpt lat="43.24938" lon="5.98373">
        <ele>301</ele>
        <time>2018-12-24T09:39:14Z</time>
      </trkpt>
      <trkpt lat="43.24925" lon="5.98403">
        <ele>301</ele>
        <time>2018-12-24T09:39:19Z</time>
      </trkpt>
      <trkpt lat="43.24927" lon="5.98412">
        <ele>302</ele>
        <time>2018-12-24T09:39:24Z</time>
      </trkpt>
      <trkpt lat="43.24961" lon="5.98442">
        <ele>306</ele>
        <time>2018-12-24T09:39:29Z</time>
      </trkpt>
      <trkpt lat="43.24978" lon="5.98461">
        <ele>307</ele>
        <time>2018-12-24T09:39:34Z</time>
      </trkpt>
      <trkpt lat="43.24987" lon="5.98478">
        <ele>306</ele>
        <time>2018-12-24T09:39:39Z</time>
      </trkpt>
      <trkpt lat="43.24989" lon="5.98489">
        <ele>305</ele>
        <time>2018-12-24T09:39:44Z</time>
      </trkpt>
      <trkpt lat="43.24985" lon="5.98538">
        <ele>295</ele>
        <time>2018-12-24T09:39:49Z</time>
      </trkpt>
      <trkpt lat="43.25" lon="5.98549">
        <ele>297</ele>
        <time>2018-12-24T09:39:54Z</time>
      </trkpt>
      <trkpt lat="43.25026" lon="5.9856">
        <ele>293</ele>
        <time>2018-12-24T09:39:59Z</time>
      </trkpt>
      <trkpt lat="43.25043" lon="5.98564">
        <ele>291</ele>
        <time>2018-12-24T09:40:04Z</time>
      </trkpt>
      <trkpt lat="43.25062" lon="5.98579">
        <ele>287</ele>
        <time>2018-12-24T09:40:09Z</time>
      </trkpt>
      <trkpt lat="43.25071" lon="5.98613">
        <ele>282</ele>
        <time>2018-12-24T09:40:14Z</time>
      </trkpt>
      <trkpt lat="43.25071" lon="5.98645">
        <ele>278</ele>
        <time>2018-12-24T09:40:19Z</time>
      </trkpt>
      <trkpt lat="43.25066" lon="5.98671">
        <ele>276</ele>
        <time>2018-12-24T09:40:24Z</time>
      </trkpt>
      <trkpt lat="43.2506" lon="5.98693">
        <ele>276</ele>
        <time>2018-12-24T09:40:29Z</time>
      </trkpt>
      <trkpt lat="43.25058" lon="5.98716">
        <ele>277</ele>
        <time>2018-12-24T09:40:34Z</time>
      </trkpt>
      <trkpt lat="43.25045" lon="5.98736">
        <ele>278</ele>
        <time>2018-12-24T09:40:39Z</time>
      </trkpt>
      <trkpt lat="43.25029" lon="5.98727">
        <ele>280</ele>
        <time>2018-12-24T09:40:44Z</time>
      </trkpt>
      <trkpt lat="43.25" lon="5.98714">
        <ele>282</ele>
        <time>2018-12-24T09:40:49Z</time>
      </trkpt>
      <trkpt lat="43.24987" lon="5.9871">
        <ele>281</ele>
        <time>2018-12-24T09:40:54Z</time>
      </trkpt>
      <trkpt lat="43.24972" lon="5.9871">
        <ele>281</ele>
        <time>2018-12-24T09:40:59Z</time>
      </trkpt>
      <trkpt lat="43.24947" lon="5.98729">
        <ele>281</ele>
        <time>2018-12-24T09:41:04Z</time>
      </trkpt>
      <trkpt lat="43.2492" lon="5.98744">
        <ele>282</ele>
        <time>2018-12-24T09:41:09Z</time>
      </trkpt>
      <trkpt lat="43.24901" lon="5.98774">
        <ele>287</ele>
        <time>2018-12-24T09:41:14Z</time>
      </trkpt>
      <trkpt lat="43.24893" lon="5.98779">
        <ele>288</ele>
        <time>2018-12-24T09:41:19Z</time>
      </trkpt>
      <trkpt lat="43.24882" lon="5.98757">
        <ele>285</ele>
        <time>2018-12-24T09:41:24Z</time>
      </trkpt>
      <trkpt lat="43.24873" lon="5.98727">
        <ele>279</ele>
        <time>2018-12-24T09:41:29Z</time>
      </trkpt>
      <trkpt lat="43.24862" lon="5.98716">
        <ele>277</ele>
        <time>2018-12-24T09:41:34Z</time>
      </trkpt>
      <trkpt lat="43.24848" lon="5.98705">
        <ele>273</ele>
        <time>2018-12-24T09:41:39Z</time>
      </trkpt>
      <trkpt lat="43.24824" lon="5.98697">
        <ele>267</ele>
        <time>2018-12-24T09:41:44Z</time>
      </trkpt>
      <trkpt lat="43.248" lon="5.98701">
        <ele>262</ele>
        <time>2018-12-24T09:41:49Z</time>
      </trkpt>
      <trkpt lat="43.24783" lon="5.9871">
        <ele>259</ele>
        <time>2018-12-24T09:41:54Z</time>
      </trkpt>
      <trkpt lat="43.24742" lon="5.98751">
        <ele>255</ele>
        <time>2018-12-24T09:41:59Z</time>
      </trkpt>
      <trkpt lat="43.24732" lon="5.98766">
        <ele>252</ele>
        <time>2018-12-24T09:42:04Z</time>
      </trkpt>
      <trkpt lat="43.24723" lon="5.98787">
        <ele>251</ele>
        <time>2018-12-24T09:42:09Z</time>
      </trkpt>
      <trkpt lat="43.24717" lon="5.98836">
        <ele>255</ele>
        <time>2018-12-24T09:42:14Z</time>
      </trkpt>
      <trkpt lat="43.24717" lon="5.98864">
        <ele>257</ele>
        <time>2018-12-24T09:42:19Z</time>
      </trkpt>
      <trkpt lat="43.24719" lon="5.98886">
        <ele>259</ele>
        <time>2018-12-24T09:42:24Z</time>
      </trkpt>
      <trkpt lat="43.24712" lon="5.98944">
        <ele>261</ele>
        <time>2018-12-24T09:42:29Z</time>
      </trkpt>
      <trkpt lat="43.24704" lon="5.98987">
        <ele>260</ele>
        <time>2018-12-24T09:42:34Z</time>
      </trkpt>
      <trkpt lat="43.24691" lon="5.99029">
        <ele>259</ele>
        <time>2018-12-24T09:42:39Z</time>
      </trkpt>
      <trkpt lat="43.24674" lon="5.99045">
        <ele>251</ele>
        <time>2018-12-24T09:42:44Z</time>
      </trkpt>
      <trkpt lat="43.24663" lon="5.99066">
        <ele>249</ele>
        <time>2018-12-24T09:42:49Z</time>
      </trkpt>
      <trkpt lat="43.24652" lon="5.99113">
        <ele>251</ele>
        <time>2018-12-24T09:42:54Z</time>
      </trkpt>
      <trkpt lat="43.24641" lon="5.99132">
        <ele>248</ele>
        <time>2018-12-24T09:42:59Z</time>
      </trkpt>
      <trkpt lat="43.24631" lon="5.99145">
        <ele>244</ele>
        <time>2018-12-24T09:43:04Z</time>
      </trkpt>
      <trkpt lat="43.2462" lon="5.99163">
        <ele>241</ele>
        <time>2018-12-24T09:43:09Z</time>
      </trkpt>
      <trkpt lat="43.24605" lon="5.99203">
        <ele>238</ele>
        <time>2018-12-24T09:43:14Z</time>
      </trkpt>
      <trkpt lat="43.24596" lon="5.99223">
        <ele>236</ele>
        <time>2018-12-24T09:43:19Z</time>
      </trkpt>
      <trkpt lat="43.24586" lon="5.99248">
        <ele>233</ele>
        <time>2018-12-24T09:43:24Z</time>
      </trkpt>
      <trkpt lat="43.24575" lon="5.99279">
        <ele>230</ele>
        <time>2018-12-24T09:43:29Z</time>
      </trkpt>
      <trkpt lat="43.24566" lon="5.99289">
        <ele>226</ele>
        <time>2018-12-24T09:43:34Z</time>
      </trkpt>
      <trkpt lat="43.24553" lon="5.99315">
        <ele>222</ele>
        <time>2018-12-24T09:43:39Z</time>
      </trkpt>
      <trkpt lat="43.24534" lon="5.99381">
        <ele>216</ele>
        <time>2018-12-24T09:43:44Z</time>
      </trkpt>
      <trkpt lat="43.24517" lon="5.99403">
        <ele>209</ele>
        <time>2018-12-24T09:43:49Z</time>
      </trkpt>
      <trkpt lat="43.24504" lon="5.99426">
        <ele>204</ele>
        <time>2018-12-24T09:43:54Z</time>
      </trkpt>
      <trkpt lat="43.245" lon="5.9945">
        <ele>203</ele>
        <time>2018-12-24T09:43:59Z</time>
      </trkpt>
      <trkpt lat="43.245" lon="5.99478">
        <ele>204</ele>
        <time>2018-12-24T09:44:04Z</time>
      </trkpt>
      <trkpt lat="43.24496" lon="5.99495">
        <ele>203</ele>
        <time>2018-12-24T09:44:09Z</time>
      </trkpt>
      <trkpt lat="43.24498" lon="5.99512">
        <ele>203</ele>
        <time>2018-12-24T09:44:14Z</time>
      </trkpt>
      <trkpt lat="43.24496" lon="5.99538">
        <ele>200</ele>
        <time>2018-12-24T09:44:19Z</time>
      </trkpt>
      <trkpt lat="43.24492" lon="5.99568">
        <ele>197</ele>
        <time>2018-12-24T09:44:24Z</time>
      </trkpt>
      <trkpt lat="43.24488" lon="5.99591">
        <ele>194</ele>
        <time>2018-12-24T09:44:29Z</time>
      </trkpt>
      <trkpt lat="43.24487" lon="5.9962">
        <ele>190</ele>
        <time>2018-12-24T09:44:34Z</time>
      </trkpt>
      <trkpt lat="43.24485" lon="5.99645">
        <ele>188</ele>
        <time>2018-12-24T09:44:39Z</time>
      </trkpt>
      <trkpt lat="43.24487" lon="5.99667">
        <ele>186</ele>
        <time>2018-12-24T09:44:44Z</time>
      </trkpt>
      <trkpt lat="43.24487" lon="5.99699">
        <ele>182</ele>
        <time>2018-12-24T09:44:49Z</time>
      </trkpt>
      <trkpt lat="43.24491" lon="5.99729">
        <ele>179</ele>
        <time>2018-12-24T09:44:54Z</time>
      </trkpt>
      <trkpt lat="43.24496" lon="5.99748">
        <ele>177</ele>
        <time>2018-12-24T09:44:59Z</time>
      </trkpt>
      <trkpt lat="43.24493" lon="5.99778">
        <ele>173</ele>
        <time>2018-12-24T09:45:04Z</time>
      </trkpt>
      <trkpt lat="43.24496" lon="5.99806">
        <ele>169</ele>
        <time>2018-12-24T09:45:09Z</time>
      </trkpt>
      <trkpt lat="43.24491" lon="5.99832">
        <ele>165</ele>
        <time>2018-12-24T09:45:14Z</time>
      </trkpt>
      <trkpt lat="43.24502" lon="5.99843">
        <ele>166</ele>
        <time>2018-12-24T09:45:19Z</time>
      </trkpt>
      <trkpt lat="43.24521" lon="5.99866">
        <ele>165</ele>
        <time>2018-12-24T09:45:24Z</time>
      </trkpt>
      <trkpt lat="43.2452" lon="5.99883">
        <ele>164</ele>
        <time>2018-12-24T09:45:29Z</time>
      </trkpt>
      <trkpt lat="43.24526" lon="5.99901">
        <ele>163</ele>
        <time>2018-12-24T09:45:34Z</time>
      </trkpt>
      <trkpt lat="43.24504" lon="5.99912">
        <ele>161</ele>
        <time>2018-12-24T09:45:39Z</time>
      </trkpt>
      <trkpt lat="43.24509" lon="5.99937">
        <ele>161</ele>
        <time>2018-12-24T09:45:44Z</time>
      </trkpt>
      <trkpt lat="43.2451" lon="5.99949">
        <ele>161</ele>
        <time>2018-12-24T09:45:49Z</time>
      </trkpt>
      <trkpt lat="43.24519" lon="5.99974">
        <ele>160</ele>
        <time>2018-12-24T09:45:54Z</time>
      </trkpt>
      <trkpt lat="43.24526" lon="5.99999">
        <ele>160</ele>
        <time>2018-12-24T09:45:59Z</time>
      </trkpt>
      <trkpt lat="43.24513" lon="6.00017">
        <ele>159</ele>
        <time>2018-12-24T09:46:04Z</time>
      </trkpt>
      <trkpt lat="43.24515" lon="6.00038">
        <ele>159</ele>
        <time>2018-12-24T09:46:09Z</time>
      </trkpt>
      <trkpt lat="43.24468" lon="6.00044">
        <ele>158</ele>
        <time>2018-12-24T09:46:14Z</time>
      </trkpt>
      <trkpt lat="43.24451" lon="6.00044">
        <ele>158</ele>
        <time>2018-12-24T09:46:19Z</time>
      </trkpt>
      <trkpt lat="43.24414" lon="6.00047">
        <ele>157</ele>
        <time>2018-12-24T09:46:24Z</time>
      </trkpt>
      <trkpt lat="43.24388" lon="6.00055">
        <ele>157</ele>
        <time>2018-12-24T09:46:29Z</time>
      </trkpt>
      <trkpt lat="43.24365" lon="6.00079">
        <ele>156</ele>
        <time>2018-12-24T09:46:34Z</time>
      </trkpt>
      <trkpt lat="43.24345" lon="6.00102">
        <ele>156</ele>
        <time>2018-12-24T09:46:39Z</time>
      </trkpt>
      <trkpt lat="43.24345" lon="6.00102">
        <ele>156</ele>
        <time>2018-12-24T09:46:44Z</time>
      </trkpt>
    </trkseg>
  </trk>
</gpx>